This site, now in its 15th season, is a labour of love and fun from one of Ottawa's most avid time trialists and number crunchers. It adheres to and is permitted by the laws of Canada, promotes the objectives of every bicycle club whose results are shown, and is donated free of charge by myself for your enjoyment and usage. If you would like results from series you ride in to be shown here, give me (celia@drmath.ca) a shout!


Index Page
ATT OTT WTT AATT CFCTT VVVTT
Help resultformat:
Case-sensitive

OBC Open TT Series - 2010-Jul-29 - 15km (Rockliffe Pkwy) (EvtFactor = 0.9390)

Weather (18:00): Mainly Sunny. Temp.: 23C, Humidity: 42%, Dew Point: 9C, Wind: WNW 22 gust 33km/h, Pressure: 101.3kPa, Vis: 24km, Humidex: *.
Weather (19:00): Mainly Sunny. Temp.: 22C, Humidity: 42%, Dew Point: 9C, Wind: WNW 17km/h, Pressure: 101.3kPa, Vis: 24km, Humidex: *.
Weather (20:00): Mainly Sunny. Temp.: 20C, Humidity: 50%, Dew Point: 10C, Wind: NW 15km/h, Pressure: 101.3kPa, Vis: 24km, Humidex: *.

Send photos with description (when/where/what) of yourself on or off of bike to celia@drmath.ca

With the air pressure above 101 kPa and a considerable amount of wind, it was hardly a course record night, but here we are with Sue Schlatter tying Meshy Holt's old course record of 20:06 (set on 2002-Jul-18)! Note that Meshy Holt was a professional cyclist from New Zealand. Sue's achievement is all the more remarkable in that not only is she 21 years older than Meshy was when she rode 20:06, but she is also a mother and wife who holds down a job as an audiologist! Way to go, Sue - If we ever get a good night, you will certainly break 20 minutes! Concerning the rest of tonight's competitors, 26 riders improved upon or tied their previous 2010 OTT best 15km, while 15 bettered or equaled their previous 15km database best. For your further interest, here are tonight's times adjusted by the OBC age handicapping, and even more interesting, here is what we get if we handicap with respect to the VTTA age/gender standards (mathematically adjusted for speed).

These results were first posted on the OBC site circa 22:00 on 2010-Jul-27 and are available here for your added pleasure and analysis.

(Lest complaints about me just lazily sucking in the results surface, I wish to make it perfectly clear that I would gladly do the data entry, getting the results up within a few of hours of the event, as history shows that I did for the WTT series for the decade beginning in 1998, and for the OTT series from 1999-2002 and again in 2006. The OBC Board however, not only won't let me volunteer here, but strangely enough they actually expelled me from the OBC for donating this time trial web site to you ! It is strange to me that a bike club would expel one of the most avid cyclists in town because she volunteers a cool cycling service...)

 
 

BESTS?
 
1 Amos, Ron  OBC/RWR 19:30 46.154 1/69 VBM 1/10 0.9348
2 Rendall, Glen  RWR 19:45 45.570 2/69 VBM 2/10 0.9975
3 Munden, David --- 19:47 45.493 3/69 VAM 1/16 1.0593
4 Parniak, Robert  --- 19:48 45.455 4/69 VAM 2/16 0.9975
5 Schlatter, Sue  SRC 20:06 44.776 5/69 VBF 1/6 1.0050
6 Sudac, Rick  OBC/RWR 20:12 44.554 6/69 VDM 1/5 0.9876
7 Roth, Casey  RWR 20:15 44.444 7/69 SEM 1/1 0.9658
8 Diaz, Rodrigo  OBC/EUR 20:37 43.654 8/69 VAM 3/16 0.9879
9 Bergeron, Philippe & Gagnon, Alexandre & Trafford, Brian OBC 20:49 43.235 9/69 TTT 1/1  
10 Gerrard, David  OBC 20:57 42.959 10/69 VBM 3/10 1.0289
11 Mullington, Chris WQW 20:58 42.925 11/69 VCM 1/16 1.0143
12 Christie, Greg  OBC/RWR 21:03 42.755 12/69 VCM 2/16 1.0071
13 Cameron, Allen  OBC/RWR 21:08 42.587 13/69 VCM 3/16 0.9906
14 Lapointe, Marc --- 21:18 42.254 14/69 VAM 4/16 1.0024
15 Spooner, Tricia  SRC 21:19 42.220 15/69 VBF 2/6 1.0141
16 Bilenkey, David OBC/EUR 21:20 42.188 16/69 VBM 4/10 1.0622
McKay, Allison  OBC/RDO 21:20 42.188 16/69 VBF 3/6 0.9907
18 Armstrong, Brian OBC 21:23 42.089 18/69 VBM 5/10 0.9860
19 Matte, Sophie  OBC 21:30 41.860 19/69 VAF 1/4 0.9700
20 DeVidi, Robert  OBC 21:31 41.828 20/69 VBM 6/10 1.0376
21 Farish, Neil  OBC/RWR 21:42 41.475 21/69 VCM 4/16 1.0046
22 McCutcheon, Drew OBC 21:51 41.190 22/69 VAM 5/16 1.1238
23 Posthuma, Hans  OBC 22:01 40.878 23/69 VCM 5/16 1.0091
24 El-Ghazal, Imad OBC 22:07 40.693 24/69 VAM 6/16  
25 Konov, Sergei OBC 22:08 40.663 25/69 VAM 7/16 0.9490
26 Forcese, Craig OBC 22:17 40.389 26/69 VBM 7/10 1.0136
27 McKay, Andrea  OBC 22:33 39.911 27/69 VBF 4/6 0.9628
28 Phelps, Ryan --- 22:34 39.882 28/69 VAM 8/16 0.9889
Tregunno, Peter  OBC 22:34 39.882 28/69 VAM 8/16 0.8568
30 Carli, Mark --- 22:41 39.677 30/69 VAM 10/16  
31 Blais, Bob OBC 22:46 39.531 31/69 VCM 6/16 1.0043
32 Dorego, Jean-Louis OBC 22:48 39.474 32/69 VCM 7/16 0.9826
33 Gagnon, Jules OBC 22:54 39.301 33/69 VCM 8/16 0.9591
34 Langevin, Roger  OBC 23:10 38.849 34/69 VBM 8/10 1.0394
35 Henry, Mike OBC 23:13 38.765 35/69 VAM 11/16 0.9786
36 Blagdon, Wendy  CYC 23:14 38.737 36/69 VBF 5/6 0.9492
37 Schattmann, Peter OBC 23:27 38.380 37/69 VCM 9/16 0.9395
38 Williams, Geoffrey OBC 23:30 38.298 38/69 VCM 10/16 1.0257
39 Parkinson, Scott OBC 23:38 38.082 39/69 VBM 9/10  
40 Monast-Dore, Maxime OBC 23:39 38.055 40/69 CAM 1/2 0.9218
41 Cheney, Paul --- 23:41 38.001 41/69 VDM 2/5 0.9749
42 Deavy, Carol  OBC 23:42 37.975 42/69 VBF 6/6 1.0127
43 Locke, Peter WQW 23:49 37.789 43/69 VCM 11/16 0.8357
44 Boulanger, Gaetan  --- 23:52 37.709 44/69 VDM 3/5 0.8603
45 Imbrogno, Giorgio  OBC 23:56 37.604 45/69 VDM 4/5 0.9731
Momtahan, Parham  OBC 23:56 37.604 45/69 VCM 12/16 0.9771
47 Lacasse, André OBC 24:27 36.810 47/69 VCM 13/16 1.0082
48 Dionne, Suzanne  OBC 24:29 36.760 48/69 VCF 1/5 1.0041
49 Joinette, Vincent --- 24:40 36.486 49/69 CAM 2/2 0.9979
50 Déry, Nicolas  OBC 24:48 36.290 50/69 VAM 12/16 0.9272
Ferlatte, Kari  FC 24:48 36.290 50/69 VAF 2/4 1.0162
52 Coldwell, Michael  ABC 24:50 36.242 52/69 VCM 14/16 0.8915
53 McInnis, Celia  ABC/CYF 25:04 35.904 53/69 VCF 2/5 0.9017
Xie, Bailin  OBC 25:04 35.904 53/69 MIF 1/1 1.0100
55 Leclair, Gilles OBC 25:20 35.526 55/69 VCM 15/16 0.9457
56 Rees, Stephanie  OBC 25:23 35.456 56/69 VAF 3/4 0.9573
57 Meyer, Lisa  OBC 25:29 35.317 57/69 VCF 3/5 0.9106
58 Georges, Patrick OBC 26:05 34.505 58/69 VBM 10/10 1.1720
59 Shaffer, Gordon OBC 26:07 34.461 59/69 VAM 13/16  
60 Balint, John OBC 26:09 34.417 60/69 VDM 5/5 1.0886
61 Liechti, Hans-Peter OBC 26:42 33.708 61/69 VCM 16/16 0.9305
62 Hsiao, Libby OBC 26:50 33.540 62/69 VAM 14/16 0.8683
63 Damen, Lynda  OBC 27:27 32.787 63/69 VCF 4/5 1.0000
64 Belanger, Julie --- 27:31 32.707 64/69 VAF 4/4  
65 Ajersch, Mary  OBC 29:10 30.857 65/69 VEF 1/1 1.0541
66 Wright, Geoffrey  OBC 32:40 27.551 66/69 VFM 1/1 1.2090
67 LeBrun, Robert OBC 33:27 26.906 67/69 VAM 15/16 0.7960
68 Tiffney, Lisa OBC 36:12 24.862 68/69 VCF 5/5  
69 Lennox, Patrick OBC DNF   69/69 VAM 16/16  
 
Average Speed of all of the above 68 finishes (1020km in 26:45:01):38.130
>>>Average of the Average Speeds for these 68 finishes38.695<<<
 

The number of data records shown above is 69
The server processing of your query took: 2 wallclock secs ( 0.06 usr + 0.00 sys = 0.06 CPU)

Thanks to our Helpers: Avery Burdett, Matteo Dal-Cin, Gunther Krausbar, Allison McKay, Andrea McKay, Alex McKnight, Erika Revesz, Mark Samborsky.

     


Apr 2 (Good Friday)
May 4 (10km) May 6 May 11 (10km) May 13 May 18 May 18 (10km) May 20 May 25 May 25 (10km) May 27 May 30 (40km) May 31 (10km)
Jun 1 Jun 1 Jun 3 Jun 8 Jun 8 Jun 10 Jun 14 (10km) Jun 15 Jun 15 Jun 17 Jun 22 (rained out) Jun 22 Jun 24 Jun 28 (10km) Jun 29 Jun 29
Jul 4 (40km) Jul 6 Jul 6 Jul 8 Jul 12 Jul 13 Jul 13 Jul 15 Jul 20 Jul 20 Jul 22 Jul 26 Jul 27 Jul 27
  Jul 29  
Aug 3 ((cancelled)) Aug 3 Aug 5 Aug 8 (40km) Aug 10 Aug 10 Aug 12 Aug 15 (40km) Aug 17 Aug 17 Aug 19 Aug 23 Aug 24 Aug 24 Aug 26 Aug 31 Aug 31 (Invitational)
Sep 2 Sep 7 Sep 9 Sep 12 (40km) Sep 14 Sep 19 (40km) Sep 21 Sep 28

OTT Rankings
Best       Best by category
WTT Rankings for All Participants
4 Best Speeds (≥3 15km, ≤1 10km)     4 Best Speeds (≥3 15km, ≤1 10km) by category
OTT Best Three 15km Rankings
Overall     by category     age-Hcap Female   age-Hcap Male
[OWA]TT BAR Ranking
Overall     by category     Rider "Consistency-Graph"
ABC BAR Ranking
Overall     by category     Rider "Consistency-Graph"
Other years
TT Calculator All TT People All TT events
ABC Home VVV Home
CKAP GOLD MEDAL
Other Links

Note: OTT data from 2003 through 2006-Apr-14 and 2007-Apr-06-? and WTT from 2008-? is taken from the official OBC site.

Please send your comments and suggestions to: Celia McInnis
Copyright © 1998-2011 Celia McInnis. All rights reserved. Links are welcomed.